Airfield :
LOGIN :

Register | Disclaimer

   EN    FR    IT 

 










Legend :    VFR   Marginal VFR   IFR   Intensive IFR   Very Intensive IFR
Visi :
Ceiling :
>= 8 km
>= 3000ft
5 to 8 km
1000 to 3000 ft
1500m to 5 km
500 to 1000 ft
800 to 1500m
200 to 500 ft
< 800m
< 200 ft
Symbols :   Thunderstorms  Fog  Heavy snow  Heavy precipitations  Wind > 20 kt
SIGMETs :     Misc.  Thunderstorms  Icing  Turbulence  Mountain Waves  Volcanic Ashes






- Airport Elevation : 183 ft
- IATA code : HAJ


EDDV - Hanover/Langenhagen Int.

CURRENT METAR :
  • 180350Z 11003KT 9999 SCT035 13/12 Q1009 NOSIG

EXPIRED METARs :
  • 180320Z 15004KT 110V170 9999 FEW040 14/12 Q1009
  • 180250Z 19006KT 160V220 9999 FEW025 14/12 Q1009
  • 180220Z 18006KT 140V210 9999 FEW025 14/13 Q1009
  • 180150Z 18006KT 130V210 9999 FEW025 14/13 Q1009
  • 180120Z 15003KT 080V190 9999 FEW025 BKN035 14/13 Q1009

TAF TAF EDDV
Valid from the 18 at 00:00 until the 19 at 00:00 UTC


172300Z 1800/1824 17005KT 9999 BKN025
TEMPO 1800/1806 BKN013
BECMG 1807/1809 20010KT
TEMPO 1812/1818 23015G25KT 4000 SHRA BKN020CB
PROB40
TEMPO 1814/1817 23015G35KT 2000 TSRA BKN013CB



MET'MAP, your aeronautical weather chart ! - Copyright ORBIFLY December 2007 - Disclaimer

ORBIFLY MET'MAP TEAM :

Programming & Development : Alexandra Zaïnal
Concept & Development : Baudouin d'Aumeries
Co-Development & Prog : Marc-Olivier Méhu
Technical & hardware support : Manuel Goepfert

Contact : metmap@orbifly.com




SOURCES & CREDITS :

   NOAA